Time;durP1;ratioP1;P1;durP2;ratioP2;P2;SDS_P1;SDS_P2;PMS_P1;PMS_P2;Temp;Humidity;BMP_temperature;BMP_pressure;BME280_temperature;BME280_humidity;BME280_pressure;Samples;Min_cycle;Max_cycle;Signal;HPM_P1;HPM_P2
2023/10/20 00:00:06;;;;;;;57.65;30.73;;;6.50;99.90;;;;;;5013072;28;20748;-63
2023/10/20 00:02:32;;;;;;;67.15;33.97;;;6.50;99.90;;;;;;5014836;28;20024;-64
2023/10/20 00:04:58;;;;;;;70.90;34.40;;;6.50;99.90;;;;;;5014042;28;20069;-64
2023/10/20 00:07:23;;;;;;;66.38;32.95;;;6.50;99.90;;;;;;5018990;28;20072;-64
2023/10/20 00:09:49;;;;;;;73.80;35.38;;;6.50;99.90;;;;;;5010979;28;20048;-64
2023/10/20 00:12:15;;;;;;;70.50;35.35;;;6.50;99.90;;;;;;5012028;28;20405;-63
2023/10/20 00:14:41;;;;;;;62.58;32.00;;;6.50;99.90;;;;;;5013018;28;20687;-64
2023/10/20 00:17:06;;;;;;;67.03;34.50;;;6.50;99.90;;;;;;5016323;28;20095;-64
2023/10/20 00:19:32;;;;;;;61.72;31.58;;;6.50;99.90;;;;;;5012743;28;20462;-64
2023/10/20 00:21:57;;;;;;;60.28;31.45;;;6.50;99.90;;;;;;5015703;28;20049;-64
2023/10/20 00:24:23;;;;;;;62.95;31.55;;;6.50;99.90;;;;;;5011695;28;20030;-65
2023/10/20 00:26:49;;;;;;;75.90;38.55;;;6.50;99.90;;;;;;5013685;28;20121;-64
2023/10/20 00:29:15;;;;;;;67.82;33.70;;;6.50;99.90;;;;;;5014289;28;20456;-64
2023/10/20 00:31:40;;;;;;;64.32;34.15;;;6.60;99.90;;;;;;5014487;28;20522;-65
2023/10/20 00:34:06;;;;;;;59.63;31.98;;;6.50;99.90;;;;;;5016405;28;20064;-64
2023/10/20 00:36:31;;;;;;;65.97;33.05;;;6.50;99.90;;;;;;5007469;28;20537;-64
2023/10/20 00:38:57;;;;;;;59.05;30.40;;;6.60;99.90;;;;;;5016265;28;20061;-64
2023/10/20 00:41:23;;;;;;;67.03;33.22;;;6.60;99.90;;;;;;5014666;28;20092;-64
2023/10/20 00:43:48;;;;;;;72.03;35.53;;;6.60;99.90;;;;;;5013469;28;20026;-63
2023/10/20 00:46:14;;;;;;;58.20;30.40;;;6.60;99.90;;;;;;5016184;28;20151;-64
2023/10/20 00:48:40;;;;;;;64.63;34.58;;;6.60;99.90;;;;;;5015996;28;20025;-63
2023/10/20 00:51:06;;;;;;;58.60;30.35;;;6.60;99.90;;;;;;5013078;28;20030;-64
2023/10/20 00:53:34;;;;;;;59.30;30.65;;;6.60;99.90;;;;;;5016179;28;20036;-63
2023/10/20 00:56:03;;;;;;;59.17;30.35;;;6.60;99.90;;;;;;5014465;28;20033;-63
2023/10/20 00:58:29;;;;;;;52.53;27.38;;;6.60;99.90;;;;;;5013104;28;20029;-62
2023/10/20 01:00:54;;;;;;;47.22;26.70;;;6.60;99.90;;;;;;5015672;28;20030;-61
2023/10/20 01:03:21;;;;;;;47.20;25.30;;;6.60;99.90;;;;;;5015090;28;20667;-64
2023/10/20 01:05:47;;;;;;;45.13;23.48;;;6.60;99.90;;;;;;5012116;28;20650;-63
2023/10/20 01:08:13;;;;;;;50.55;25.95;;;6.60;99.90;;;;;;5012712;28;20068;-64
2023/10/20 01:10:38;;;;;;;39.55;23.10;;;6.60;99.90;;;;;;5015602;28;20021;-64
2023/10/20 01:13:05;;;;;;;51.80;26.67;;;6.70;99.90;;;;;;5014143;28;20076;-63
2023/10/20 01:15:31;;;;;;;46.92;25.23;;;6.60;99.90;;;;;;5016601;28;20033;-63
2023/10/20 01:17:56;;;;;;;42.95;23.10;;;6.60;99.90;;;;;;5014944;28;20052;-63
2023/10/20 01:20:23;;;;;;;43.35;23.23;;;6.70;99.90;;;;;;5016398;28;20473;-63
2023/10/20 01:22:48;;;;;;;40.65;23.10;;;6.70;99.90;;;;;;5012304;28;20826;-64
2023/10/20 01:25:14;;;;;;;35.58;20.13;;;6.70;99.90;;;;;;5012427;28;20065;-64
2023/10/20 01:27:39;;;;;;;36.03;21.05;;;6.70;99.90;;;;;;5015814;28;20029;-63
2023/10/20 01:30:06;;;;;;;36.95;20.35;;;6.70;99.90;;;;;;5013051;28;20033;-63
2023/10/20 01:32:31;;;;;;;40.60;20.33;;;6.70;99.90;;;;;;5014575;28;20106;-64
2023/10/20 01:34:57;;;;;;;38.42;19.95;;;6.70;99.90;;;;;;5015999;28;20693;-65
2023/10/20 01:37:22;;;;;;;38.90;22.40;;;6.70;99.90;;;;;;5007145;28;20034;-64
2023/10/20 01:39:48;;;;;;;35.53;19.45;;;6.70;99.90;;;;;;5013618;28;20049;-63
2023/10/20 01:42:14;;;;;;;28.25;17.05;;;6.70;99.90;;;;;;5009615;28;20394;-63
2023/10/20 01:44:40;;;;;;;28.42;16.50;;;6.70;99.90;;;;;;5016050;28;20097;-64
2023/10/20 01:47:05;;;;;;;35.15;17.90;;;6.70;99.90;;;;;;5014635;28;20160;-63
2023/10/20 01:49:31;;;;;;;29.02;16.27;;;6.70;99.90;;;;;;5011712;28;20017;-64
2023/10/20 01:51:57;;;;;;;30.95;17.55;;;6.70;99.90;;;;;;5011737;28;20038;-64
2023/10/20 01:54:23;;;;;;;32.45;18.10;;;6.70;99.90;;;;;;5014201;28;20037;-64
2023/10/20 01:56:49;;;;;;;28.85;15.68;;;6.70;99.90;;;;;;5014175;28;20029;-64
2023/10/20 01:59:15;;;;;;;21.33;13.35;;;6.70;99.90;;;;;;5011527;28;20129;-65
2023/10/20 02:01:40;;;;;;;24.40;13.63;;;6.70;99.90;;;;;;5015996;28;20536;-64
2023/10/20 02:04:06;;;;;;;22.58;12.63;;;6.70;99.90;;;;;;5013848;28;20108;-65
2023/10/20 02:06:31;;;;;;;18.05;11.27;;;6.60;99.90;;;;;;5012859;28;20116;-65
2023/10/20 02:08:58;;;;;;;20.27;11.27;;;6.60;99.90;;;;;;5010918;28;20559;-65
2023/10/20 02:11:23;;;;;;;18.27;11.18;;;6.60;99.90;;;;;;5015853;28;20026;-65
2023/10/20 02:13:49;;;;;;;17.65;10.77;;;6.60;99.90;;;;;;5014234;28;20083;-65
2023/10/20 02:16:15;;;;;;;19.42;11.88;;;6.60;99.90;;;;;;5013379;28;20438;-65
2023/10/20 02:18:41;;;;;;;18.23;10.10;;;6.50;99.90;;;;;;5013433;28;20018;-65
2023/10/20 02:21:08;;;;;;;16.13;9.82;;;6.50;99.90;;;;;;5012442;28;20053;-65
2023/10/20 02:23:35;;;;;;;16.13;9.07;;;6.50;99.90;;;;;;5015264;28;20030;-65
2023/10/20 02:26:04;;;;;;;15.77;9.50;;;6.50;99.90;;;;;;5011479;28;20398;-65
2023/10/20 02:28:29;;;;;;;16.52;10.30;;;6.50;99.90;;;;;;5013210;28;20024;-66
2023/10/20 02:30:58;;;;;;;16.83;9.90;;;6.50;99.90;;;;;;5012533;28;20029;-65
2023/10/20 02:33:25;;;;;;;16.13;9.63;;;6.50;99.90;;;;;;5011568;28;20034;-65
2023/10/20 02:35:50;;;;;;;15.85;9.18;;;6.40;99.90;;;;;;5013980;28;20041;-65
2023/10/20 02:38:16;;;;;;;16.83;10.00;;;6.40;99.90;;;;;;5008564;28;20028;-66
2023/10/20 02:40:54;;;;;;;16.13;9.43;;;6.40;99.90;;;;;;5011389;28;20025;-66
2023/10/20 02:43:24;;;;;;;16.33;9.70;;;6.40;99.90;;;;;;5003860;28;20477;-66
2023/10/20 02:45:54;;;;;;;19.15;11.18;;;6.40;99.90;;;;;;5015188;28;20086;-65
2023/10/20 02:48:20;;;;;;;16.77;9.40;;;6.40;99.90;;;;;;5012225;28;20036;-66
2023/10/20 02:50:46;;;;;;;16.75;9.52;;;6.40;99.90;;;;;;5009874;28;20026;-66
2023/10/20 02:53:13;;;;;;;17.70;10.00;;;6.30;99.90;;;;;;5019450;28;20028;-66
2023/10/20 02:55:39;;;;;;;14.93;9.35;;;6.30;99.90;;;;;;5013194;28;20086;-66
2023/10/20 02:58:05;;;;;;;19.60;11.52;;;6.30;99.90;;;;;;5019148;28;20432;-65
2023/10/20 03:00:31;;;;;;;19.90;10.52;;;6.30;99.90;;;;;;5018285;28;20029;-65
2023/10/20 03:02:58;;;;;;;19.70;11.35;;;6.30;99.90;;;;;;5016423;28;20424;-65
2023/10/20 03:05:29;;;;;;;19.55;11.70;;;6.30;99.90;;;;;;5015140;28;20478;-65
2023/10/20 03:07:57;;;;;;;18.98;10.55;;;6.30;99.90;;;;;;5019070;28;20037;-65
2023/10/20 03:10:23;;;;;;;17.90;10.75;;;6.30;99.90;;;;;;5008441;28;20014;-66
2023/10/20 03:12:48;;;;;;;20.40;11.27;;;6.30;99.90;;;;;;5009785;28;20022;-66
2023/10/20 03:15:14;;;;;;;20.88;12.07;;;6.20;99.90;;;;;;5017707;28;20109;-66
2023/10/20 03:17:40;;;;;;;21.17;11.25;;;6.30;99.90;;;;;;5019122;28;20026;-66
2023/10/20 03:20:14;;;;;;;26.13;13.15;;;6.20;99.90;;;;;;5014897;28;20033;-66
2023/10/20 03:22:43;;;;;;;20.65;11.80;;;6.20;99.90;;;;;;5017544;28;20032;-67
2023/10/20 03:25:10;;;;;;;19.23;12.65;;;6.20;99.90;;;;;;5017180;28;20041;-66
2023/10/20 03:27:37;;;;;;;21.00;11.75;;;6.20;99.90;;;;;;5015073;28;20033;-66
2023/10/20 03:30:06;;;;;;;21.10;12.40;;;6.20;99.90;;;;;;5018444;28;20053;-66
2023/10/20 03:32:32;;;;;;;19.13;11.40;;;6.10;99.90;;;;;;5013516;28;20053;-67
2023/10/20 03:34:58;;;;;;;23.30;13.13;;;6.20;99.90;;;;;;5018552;28;20104;-66
2023/10/20 03:37:23;;;;;;;21.80;12.52;;;6.10;99.90;;;;;;5009624;28;20037;-66
2023/10/20 03:39:50;;;;;;;24.85;13.18;;;6.10;99.90;;;;;;5016810;28;20026;-67
2023/10/20 03:42:16;;;;;;;18.75;11.45;;;6.10;99.90;;;;;;5017221;28;20120;-67
2023/10/20 03:44:43;;;;;;;24.52;12.68;;;6.10;99.90;;;;;;5013333;28;20453;-67
2023/10/20 03:47:09;;;;;;;19.30;11.27;;;6.10;99.90;;;;;;5017880;28;20917;-66
2023/10/20 03:49:35;;;;;;;20.92;12.00;;;6.10;99.90;;;;;;5011041;28;20029;-68
2023/10/20 03:52:01;;;;;;;25.92;12.93;;;6.10;99.90;;;;;;5009198;28;20029;-67
2023/10/20 03:54:30;;;;;;;18.45;11.52;;;6.00;99.90;;;;;;5006262;28;20079;-66
2023/10/20 03:56:56;;;;;;;26.17;13.77;;;6.00;99.90;;;;;;5014646;28;20017;-66
2023/10/20 03:59:22;;;;;;;22.67;12.98;;;6.10;99.90;;;;;;5008838;28;20030;-66
2023/10/20 04:01:47;;;;;;;19.77;12.38;;;6.10;99.90;;;;;;5013511;28;20163;-67
2023/10/20 04:04:13;;;;;;;20.17;13.30;;;6.00;99.90;;;;;;5012038;28;20487;-68
2023/10/20 04:06:39;;;;;;;20.23;11.40;;;6.00;99.90;;;;;;5012753;28;20033;-64
2023/10/20 04:09:14;;;;;;;19.70;12.73;;;6.10;99.90;;;;;;5010897;28;20197;-67
2023/10/20 04:11:39;;;;;;;21.23;13.02;;;6.00;99.90;;;;;;5004827;28;20074;-66
2023/10/20 04:14:06;;;;;;;18.30;11.85;;;6.00;99.90;;;;;;5007769;28;20064;-68
2023/10/20 04:16:42;;;;;;;18.70;11.35;;;6.00;99.90;;;;;;5009212;28;20049;-68
2023/10/20 04:19:12;;;;;;;20.75;13.20;;;6.00;99.90;;;;;;5011755;28;20026;-67
2023/10/20 04:21:43;;;;;;;18.30;11.73;;;6.00;99.90;;;;;;5016634;28;20013;-67
2023/10/20 04:24:12;;;;;;;24.73;13.45;;;6.00;99.90;;;;;;5009038;28;20060;-66
2023/10/20 04:26:43;;;;;;;21.40;12.15;;;6.00;99.90;;;;;;5003632;28;20026;-66
2023/10/20 04:52:55;;;;;;;24.40;14.60;;;5.90;99.90;;;;;;5002439;28;20066;-67
2023/10/20 04:57:53;;;;;;;26.73;15.02;;;5.90;99.90;;;;;;5007355;28;20515;-65
2023/10/20 05:07:54;;;;;;;30.17;14.33;;;5.90;99.90;;;;;;5008254;28;20022;-67
2023/10/20 05:10:20;;;;;;;31.13;15.48;;;5.90;99.90;;;;;;5008772;28;20272;-65
2023/10/20 05:12:47;;;;;;;31.08;16.48;;;5.80;99.90;;;;;;5006472;28;20486;-64
2023/10/20 05:15:13;;;;;;;28.80;15.32;;;5.80;99.90;;;;;;5007378;28;20095;-66
2023/10/20 05:17:39;;;;;;;23.90;15.27;;;5.80;99.90;;;;;;5011208;28;20033;-65
2023/10/20 05:20:06;;;;;;;27.55;16.00;;;5.80;99.90;;;;;;5009695;28;20453;-66
2023/10/20 05:22:35;;;;;;;34.95;16.83;;;5.80;99.90;;;;;;5015443;28;20029;-65
2023/10/20 05:25:01;;;;;;;28.25;16.13;;;5.80;99.90;;;;;;5008632;28;20049;-66
2023/10/20 05:27:27;;;;;;;30.50;16.55;;;5.80;99.90;;;;;;5008447;28;20545;-65
2023/10/20 05:29:53;;;;;;;22.52;14.88;;;5.80;99.90;;;;;;5008586;28;20532;-66
2023/10/20 05:32:18;;;;;;;27.80;16.15;;;5.80;99.90;;;;;;5006987;28;20041;-68
2023/10/20 05:34:44;;;;;;;26.95;15.77;;;5.80;99.90;;;;;;5008976;28;20042;-67
2023/10/20 05:37:10;;;;;;;27.42;16.83;;;5.80;99.90;;;;;;5007925;28;20037;-66
2023/10/20 05:39:36;;;;;;;26.50;16.40;;;5.70;99.90;;;;;;5013258;28;20021;-66
2023/10/20 05:42:04;;;;;;;31.20;18.20;;;5.70;99.90;;;;;;5013302;28;20033;-66
2023/10/20 05:44:33;;;;;;;30.75;17.90;;;5.70;99.90;;;;;;5010053;28;20025;-67
2023/10/20 05:46:58;;;;;;;31.35;16.35;;;5.70;99.90;;;;;;5007053;28;20041;-66
2023/10/20 05:49:24;;;;;;;33.45;17.83;;;5.70;99.90;;;;;;5009696;28;20026;-67
2023/10/20 05:51:51;;;;;;;32.33;17.42;;;5.70;99.90;;;;;;5005870;28;20018;-67
2023/10/20 05:54:17;;;;;;;30.92;17.92;;;5.70;99.90;;;;;;5008244;28;20025;-56
2023/10/20 05:56:43;;;;;;;32.65;18.67;;;5.70;99.90;;;;;;5008084;28;20034;-51
2023/10/20 05:59:08;;;;;;;30.45;18.88;;;5.70;99.90;;;;;;5008447;28;20379;-66
2023/10/20 06:01:34;;;;;;;27.85;16.75;;;5.70;99.90;;;;;;5006740;28;20034;-65
2023/10/20 06:03:59;;;;;;;35.05;17.60;;;5.60;99.90;;;;;;5007541;28;20694;-66
2023/10/20 06:06:25;;;;;;;31.52;18.42;;;5.60;99.90;;;;;;5007985;28;20036;-65
2023/10/20 06:08:50;;;;;;;30.40;18.30;;;5.60;99.90;;;;;;5012922;28;20025;-66
2023/10/20 06:11:16;;;;;;;30.77;17.58;;;5.60;99.90;;;;;;5004080;28;20784;-67
2023/10/20 06:13:41;;;;;;;36.30;20.42;;;5.60;99.90;;;;;;5009747;28;20034;-66
2023/10/20 06:16:10;;;;;;;29.23;17.35;;;5.60;99.90;;;;;;5009722;28;20774;-64
2023/10/20 06:18:37;;;;;;;28.67;16.63;;;5.50;99.90;;;;;;5005058;28;20029;-65
2023/10/20 06:21:10;;;;;;;32.75;17.55;;;5.50;99.90;;;;;;5006289;28;20029;-64
2023/10/20 06:23:35;;;;;;;33.35;19.20;;;5.50;99.90;;;;;;5004937;28;20057;-65
2023/10/20 06:26:01;;;;;;;31.60;17.20;;;5.60;99.90;;;;;;5011211;28;20505;-67
2023/10/20 06:28:26;;;;;;;36.55;17.23;;;5.50;99.90;;;;;;5005986;28;20473;-65
2023/10/20 06:30:53;;;;;;;35.03;18.80;;;5.50;99.90;;;;;;5008645;28;20048;-65
2023/10/20 06:33:19;;;;;;;30.98;17.63;;;5.50;99.90;;;;;;5008807;28;20030;-65
2023/10/20 06:35:52;;;;;;;36.90;19.63;;;5.50;99.90;;;;;;5007770;28;20050;-65
2023/10/20 06:39:05;;;;;;;37.88;20.00;;;5.50;99.90;;;;;;5004830;28;20077;-65
2023/10/20 06:41:06;;;;;;;31.02;17.90;;;5.50;99.90;;;;;;5010111;28;20048;-67
2023/10/20 06:43:32;;;;;;;34.63;18.20;;;5.50;99.90;;;;;;5004281;28;20105;-65
2023/10/20 06:46:00;;;;;;;26.02;15.40;;;5.50;99.90;;;;;;5000894;28;20117;-66
2023/10/20 06:48:29;;;;;;;35.88;19.00;;;5.50;99.90;;;;;;5008427;28;20026;-66
2023/10/20 06:50:56;;;;;;;33.50;17.95;;;5.50;99.90;;;;;;5007966;28;20141;-63
2023/10/20 06:53:22;;;;;;;36.50;19.80;;;5.50;99.90;;;;;;5010955;28;20724;-65
2023/10/20 06:55:48;;;;;;;38.92;20.02;;;5.50;99.90;;;;;;5013158;28;20034;-66
2023/10/20 06:58:17;;;;;;;37.53;18.92;;;5.50;99.90;;;;;;5012086;28;20100;-65
2023/10/20 07:00:44;;;;;;;36.33;22.25;;;5.50;99.90;;;;;;5007652;28;20025;-65
2023/10/20 07:03:10;;;;;;;33.13;18.70;;;5.50;99.90;;;;;;5009570;28;20493;-66
2023/10/20 07:05:37;;;;;;;35.60;19.77;;;5.40;99.90;;;;;;4994570;28;20034;-66
2023/10/20 07:08:04;;;;;;;26.15;17.10;;;5.40;99.90;;;;;;5001448;28;20041;-66
2023/10/20 07:10:33;;;;;;;31.52;17.10;;;5.40;99.90;;;;;;5010462;28;20049;-65
2023/10/20 07:13:00;;;;;;;27.77;17.13;;;5.40;99.90;;;;;;5012998;28;20030;-66
2023/10/20 07:15:25;;;;;;;31.02;14.95;;;5.40;99.90;;;;;;5014212;28;20068;-66
2023/10/20 07:17:51;;;;;;;29.75;17.70;;;5.40;99.90;;;;;;5010231;28;20529;-66
2023/10/20 07:20:16;;;;;;;30.23;19.17;;;5.40;99.90;;;;;;5013011;28;20036;-66
2023/10/20 07:22:42;;;;;;;26.80;16.52;;;5.40;99.90;;;;;;5012668;28;20076;-66
2023/10/20 07:25:08;;;;;;;28.67;15.88;;;5.40;99.90;;;;;;5011608;28;20493;-65
2023/10/20 07:27:33;;;;;;;27.52;16.35;;;5.30;99.90;;;;;;5015256;28;20096;-66
2023/10/20 07:29:59;;;;;;;33.85;18.13;;;5.40;99.90;;;;;;5012834;28;20025;-66
2023/10/20 07:32:25;;;;;;;30.17;17.42;;;5.40;99.90;;;;;;5011947;28;20041;-65
2023/10/20 07:34:51;;;;;;;23.83;15.90;;;5.30;99.90;;;;;;5013630;28;20045;-66
2023/10/20 07:37:16;;;;;;;26.23;15.52;;;5.40;99.90;;;;;;5005029;28;20030;-65
2023/10/20 07:39:44;;;;;;;24.98;14.68;;;5.30;99.90;;;;;;5017064;28;20049;-64
2023/10/20 07:42:09;;;;;;;26.40;13.93;;;5.30;99.90;;;;;;5015907;28;20401;-65
2023/10/20 07:44:35;;;;;;;24.83;15.13;;;5.30;99.90;;;;;;5006247;28;20017;-64
2023/10/20 07:47:00;;;;;;;23.70;14.63;;;5.30;99.90;;;;;;5020438;28;20032;-65
2023/10/20 07:49:26;;;;;;;28.25;15.13;;;5.30;99.90;;;;;;5013511;28;20120;-65
2023/10/20 07:51:52;;;;;;;26.77;14.82;;;5.30;99.90;;;;;;5014221;28;20030;-65
2023/10/20 07:54:17;;;;;;;22.13;13.02;;;5.30;99.90;;;;;;5015618;28;20511;-66
2023/10/20 07:56:43;;;;;;;25.27;14.15;;;5.30;99.90;;;;;;5015370;28;20029;-64
2023/10/20 07:59:08;;;;;;;26.13;13.93;;;5.30;99.90;;;;;;5014575;28;20034;-64
2023/10/20 08:01:34;;;;;;;21.27;12.90;;;5.30;99.90;;;;;;5012013;28;20104;-65
2023/10/20 08:04:01;;;;;;;22.40;13.27;;;5.30;99.90;;;;;;5014136;28;20048;-65
2023/10/20 08:06:27;;;;;;;24.98;12.95;;;5.20;99.90;;;;;;5015483;28;20018;-65
2023/10/20 08:08:52;;;;;;;23.80;13.77;;;5.20;99.90;;;;;;5007717;28;20040;-65
2023/10/20 08:11:19;;;;;;;21.05;13.40;;;5.20;99.90;;;;;;5017255;28;20533;-64
2023/10/20 08:13:50;;;;;;;21.55;13.45;;;5.30;99.90;;;;;;5013451;28;20018;-64
2023/10/20 08:16:17;;;;;;;20.67;12.55;;;5.30;99.90;;;;;;5013697;28;20017;-64
2023/10/20 08:18:43;;;;;;;23.15;14.95;;;5.20;99.90;;;;;;5019673;28;20093;-65
2023/10/20 08:21:09;;;;;;;25.80;15.00;;;5.20;99.90;;;;;;5010241;28;20021;-65
2023/10/20 08:23:37;;;;;;;26.23;14.10;;;5.20;99.90;;;;;;5014783;28;20032;-65
2023/10/20 08:26:03;;;;;;;27.10;14.85;;;5.20;99.90;;;;;;5014252;28;20033;-64
2023/10/20 08:28:29;;;;;;;25.33;13.25;;;5.20;99.90;;;;;;5016371;28;20033;-64
2023/10/20 08:31:08;;;;;;;28.50;15.18;;;5.20;99.90;;;;;;5013419;28;20037;-66
2023/10/20 08:33:34;;;;;;;25.65;14.85;;;5.20;99.90;;;;;;5014772;28;20324;-65
2023/10/20 08:36:11;;;;;;;31.80;16.20;;;5.20;99.90;;;;;;5015489;28;20182;-65
2023/10/20 08:38:37;;;;;;;25.73;15.43;;;5.20;99.90;;;;;;5013480;28;20097;-65
2023/10/20 08:41:28;;;;;;;27.17;15.40;;;5.20;99.90;;;;;;5014836;28;20683;-65
2023/10/20 08:43:55;;;;;;;23.88;15.07;;;5.20;99.90;;;;;;5011526;28;20545;-65
2023/10/20 08:46:23;;;;;;;28.52;14.80;;;5.20;99.90;;;;;;5013711;28;20024;-64
2023/10/20 08:48:49;;;;;;;37.30;16.90;;;5.20;99.90;;;;;;5014830;28;20026;-65
2023/10/20 08:51:17;;;;;;;28.77;16.05;;;5.30;99.90;;;;;;5007786;28;20061;-65
2023/10/20 08:53:43;;;;;;;24.50;16.05;;;5.20;99.90;;;;;;5017102;28;20091;-65
2023/10/20 08:56:10;;;;;;;30.92;15.65;;;5.30;99.90;;;;;;5012949;28;20041;-65
2023/10/20 08:58:36;;;;;;;30.67;16.58;;;5.20;99.90;;;;;;5014526;28;20028;-65
2023/10/20 09:01:03;;;;;;;25.35;16.08;;;5.30;99.90;;;;;;5015680;28;20029;-64
2023/10/20 09:03:43;;;;;;;27.52;16.35;;;5.20;99.90;;;;;;5011399;28;20631;-64
2023/10/20 09:06:12;;;;;;;31.17;16.50;;;5.30;99.90;;;;;;5015648;28;20033;-65
2023/10/20 09:08:38;;;;;;;28.83;16.33;;;5.20;99.90;;;;;;5010896;28;20018;-65
2023/10/20 09:11:11;;;;;;;32.15;16.30;;;5.20;99.90;;;;;;5013285;28;20025;-65
2023/10/20 09:13:39;;;;;;;26.65;15.45;;;5.20;99.90;;;;;;5015369;28;20102;-66
2023/10/20 09:16:07;;;;;;;29.65;15.45;;;5.20;99.90;;;;;;5011164;28;20038;-65
2023/10/20 09:18:53;;;;;;;25.48;14.63;;;5.20;99.90;;;;;;5013966;28;20083;-66
2023/10/20 09:21:20;;;;;;;28.75;14.90;;;5.20;99.90;;;;;;5006661;28;20041;-66
2023/10/20 09:23:56;;;;;;;23.98;14.70;;;5.20;99.90;;;;;;5015064;28;20029;-67
2023/10/20 09:26:23;;;;;;;25.35;12.80;;;5.20;99.90;;;;;;5011211;28;20049;-66
2023/10/20 09:28:50;;;;;;;30.27;15.25;;;5.20;99.90;;;;;;5006781;28;20046;-67
2023/10/20 09:31:17;;;;;;;28.38;13.85;;;5.20;99.90;;;;;;5020298;28;20376;-66
2023/10/20 09:33:43;;;;;;;27.10;13.77;;;5.20;99.90;;;;;;5010911;28;20242;-65
2023/10/20 09:36:11;;;;;;;25.75;13.38;;;5.10;99.90;;;;;;5013105;28;20079;-59
2023/10/20 09:38:37;;;;;;;25.58;14.15;;;5.10;99.90;;;;;;5014719;28;20469;-65
2023/10/20 09:41:11;;;;;;;28.98;13.50;;;5.10;99.90;;;;;;5015601;28;20053;-66
2023/10/20 09:43:45;;;;;;;24.08;12.57;;;5.10;99.90;;;;;;5010971;28;20540;-66
2023/10/20 09:46:54;;;;;;;26.33;13.10;;;5.10;99.90;;;;;;5014485;28;20033;-66
2023/10/20 09:49:25;;;;;;;21.10;12.25;;;5.10;99.90;;;;;;5007456;28;20040;-66
2023/10/20 09:51:52;;;;;;;20.17;11.90;;;5.10;99.90;;;;;;5015686;28;20152;-66
2023/10/20 09:54:21;;;;;;;21.55;12.20;;;5.20;99.90;;;;;;5016258;28;20922;-65
2023/10/20 09:56:48;;;;;;;20.27;11.10;;;5.20;99.90;;;;;;5012139;28;20053;-67
2023/10/20 09:59:23;;;;;;;23.33;11.85;;;5.20;99.90;;;;;;5010012;28;20026;-67
2023/10/20 10:01:51;;;;;;;20.10;11.85;;;5.20;99.90;;;;;;5013357;28;20018;-66
2023/10/20 10:04:25;;;;;;;22.05;11.15;;;5.20;99.90;;;;;;5008129;28;20104;-67
2023/10/20 10:06:51;;;;;;;17.70;10.45;;;5.20;99.90;;;;;;5002913;28;20049;-67
2023/10/20 10:09:16;;;;;;;16.35;9.90;;;5.20;99.90;;;;;;5003853;28;20038;-68
2023/10/20 10:11:42;;;;;;;17.92;9.70;;;5.20;99.90;;;;;;5005300;28;20072;-66
2023/10/20 10:14:17;;;;;;;16.92;9.07;;;5.20;99.90;;;;;;5007446;28;20092;-66
2023/10/20 10:16:53;;;;;;;15.40;9.25;;;5.20;99.90;;;;;;5008242;28;20046;-65
2023/10/20 10:19:20;;;;;;;14.65;9.20;;;5.20;99.90;;;;;;5001576;28;20026;-67
2023/10/20 10:21:52;;;;;;;16.67;9.07;;;5.20;99.90;;;;;;5009314;28;20067;-66
2023/10/20 10:24:19;;;;;;;14.57;9.70;;;5.20;99.90;;;;;;5008530;28;20009;-66
2023/10/20 10:27:01;;;;;;;15.02;8.93;;;5.20;99.90;;;;;;5006998;28;20106;-65
2023/10/20 10:29:48;;;;;;;14.10;8.68;;;5.30;99.90;;;;;;5007543;28;20488;-68
2023/10/20 10:32:14;;;;;;;16.90;9.85;;;5.20;99.90;;;;;;5006174;28;20408;-65
2023/10/20 10:34:43;;;;;;;13.75;8.05;;;5.20;99.90;;;;;;5016209;28;20118;-66
2023/10/20 10:37:09;;;;;;;14.02;7.93;;;5.20;99.90;;;;;;5008690;28;20060;-65
2023/10/20 10:39:34;;;;;;;12.70;8.40;;;5.30;99.90;;;;;;5008592;28;20037;-66
2023/10/20 10:42:04;;;;;;;15.27;8.75;;;5.30;99.90;;;;;;5008417;28;20397;-65
2023/10/20 10:44:33;;;;;;;15.52;9.48;;;5.30;99.90;;;;;;5007617;28;20121;-66
2023/10/20 10:46:58;;;;;;;12.98;7.75;;;5.30;99.90;;;;;;5010015;28;20037;-65
2023/10/20 10:49:24;;;;;;;12.70;7.97;;;5.30;99.90;;;;;;5010898;28;20504;-66
2023/10/20 10:51:52;;;;;;;12.35;8.20;;;5.30;99.90;;;;;;5010289;28;20533;-64
2023/10/20 10:54:18;;;;;;;11.77;7.65;;;5.30;99.90;;;;;;5008322;28;20036;-66
2023/10/20 10:56:44;;;;;;;15.07;8.38;;;5.30;99.90;;;;;;5007280;28;20264;-66
2023/10/20 10:59:12;;;;;;;11.15;7.57;;;5.30;99.90;;;;;;5004274;28;20041;-66
2023/10/20 11:01:42;;;;;;;13.55;8.23;;;5.30;99.90;;;;;;5006686;28;20006;-66
2023/10/20 11:04:11;;;;;;;11.23;7.65;;;5.30;99.90;;;;;;5007905;28;20127;-65
2023/10/20 11:06:38;;;;;;;13.13;8.35;;;5.30;99.90;;;;;;5008821;28;20050;-68
2023/10/20 11:09:10;;;;;;;13.20;8.75;;;5.30;99.90;;;;;;5010691;28;20101;-66
2023/10/20 11:11:45;;;;;;;13.15;7.65;;;5.30;99.90;;;;;;5005612;28;20028;-65
2023/10/20 11:14:12;;;;;;;13.40;8.30;;;5.30;99.90;;;;;;5014622;28;20044;-66
2023/10/20 11:16:37;;;;;;;14.98;8.82;;;5.30;99.90;;;;;;5008480;28;20593;-65
2023/10/20 11:19:03;;;;;;;19.70;8.38;;;5.30;99.90;;;;;;5011833;28;20030;-65
2023/10/20 11:21:29;;;;;;;14.27;8.55;;;5.30;99.90;;;;;;5009717;28;20029;-65
2023/10/20 11:23:58;;;;;;;13.30;8.05;;;5.20;99.90;;;;;;5014386;28;20289;-63
2023/10/20 11:26:26;;;;;;;15.15;8.65;;;5.30;99.90;;;;;;5013130;28;20029;-62
2023/10/20 11:28:52;;;;;;;19.15;9.50;;;5.20;99.90;;;;;;5013142;28;20080;-61
2023/10/20 11:31:19;;;;;;;17.60;9.75;;;5.20;99.90;;;;;;5015209;28;20029;-63
2023/10/20 11:33:44;;;;;;;15.82;9.05;;;5.20;99.90;;;;;;5013884;28;20017;-61
2023/10/20 11:36:10;;;;;;;12.05;7.55;;;5.20;99.90;;;;;;5006494;28;20334;-62
2023/10/20 11:38:35;;;;;;;15.57;8.10;;;5.20;99.90;;;;;;5007963;28;20053;-61
2023/10/20 11:41:01;;;;;;;18.35;9.30;;;5.20;99.90;;;;;;5015896;28;20396;-62
2023/10/20 11:43:26;;;;;;;14.93;8.48;;;5.20;99.90;;;;;;5011769;28;20029;-63
2023/10/20 11:45:52;;;;;;;14.18;8.63;;;5.20;99.90;;;;;;5013559;28;20026;-62
2023/10/20 11:48:17;;;;;;;15.63;8.20;;;5.20;99.90;;;;;;5014070;28;20037;-62
2023/10/20 11:50:43;;;;;;;15.75;8.65;;;5.20;99.90;;;;;;5008777;28;20026;-63
2023/10/20 11:53:09;;;;;;;13.05;8.00;;;5.20;99.90;;;;;;5010036;28;20061;-63
2023/10/20 11:55:35;;;;;;;17.90;8.82;;;5.20;99.90;;;;;;5013283;28;20018;-64
2023/10/20 11:58:03;;;;;;;14.10;7.47;;;5.20;99.90;;;;;;5010559;28;20032;-63
2023/10/20 12:00:29;;;;;;;15.15;8.07;;;5.30;99.90;;;;;;5012433;28;20045;-64
2023/10/20 12:02:55;;;;;;;13.55;7.30;;;5.30;99.90;;;;;;5015405;28;20021;-69
2023/10/20 12:05:20;;;;;;;12.80;7.32;;;5.30;99.90;;;;;;5012704;28;20014;-69
2023/10/20 12:07:46;;;;;;;12.02;7.47;;;5.30;99.90;;;;;;5012181;28;20083;-68
2023/10/20 12:10:12;;;;;;;10.98;6.45;;;5.30;99.90;;;;;;5011994;28;20029;-68
2023/10/20 12:12:38;;;;;;;12.25;7.00;;;5.30;99.90;;;;;;5010261;28;20123;-70
2023/10/20 12:15:05;;;;;;;13.05;7.70;;;5.30;99.90;;;;;;5010795;28;20397;-67
2023/10/20 12:17:30;;;;;;;11.93;6.75;;;5.30;99.90;;;;;;5014971;28;20032;-66
2023/10/20 12:19:56;;;;;;;10.05;6.90;;;5.30;99.90;;;;;;5016008;28;20025;-65
2023/10/20 12:22:23;;;;;;;7.80;5.50;;;5.30;99.90;;;;;;5012633;28;20026;-68
2023/10/20 12:24:50;;;;;;;8.30;5.55;;;5.30;99.90;;;;;;5016768;28;20583;-68
2023/10/20 12:27:15;;;;;;;8.27;5.45;;;5.30;99.90;;;;;;5013459;28;20037;-68
2023/10/20 12:29:41;;;;;;;10.10;6.22;;;5.40;99.90;;;;;;5016141;28;20029;-68
2023/10/20 12:32:07;;;;;;;10.95;5.68;;;5.30;99.90;;;;;;5017367;28;20030;-67
2023/10/20 12:34:33;;;;;;;11.25;6.28;;;5.40;99.90;;;;;;5013494;28;20038;-66
2023/10/20 12:36:59;;;;;;;8.65;5.75;;;5.40;99.90;;;;;;5012744;28;20041;-66
2023/10/20 12:39:25;;;;;;;8.93;5.35;;;5.40;99.90;;;;;;5010562;28;20025;-67
2023/10/20 12:41:51;;;;;;;9.45;5.53;;;5.40;99.90;;;;;;5013434;28;20022;-67
2023/10/20 12:44:19;;;;;;;10.60;5.60;;;5.40;99.90;;;;;;5014786;28;20029;-67
2023/10/20 12:46:45;;;;;;;7.95;4.75;;;5.40;99.90;;;;;;5011569;28;20021;-68
2023/10/20 12:49:11;;;;;;;10.82;5.38;;;5.40;99.90;;;;;;5013062;28;20022;-67
2023/10/20 12:51:37;;;;;;;7.43;4.22;;;5.40;99.90;;;;;;5014804;28;20495;-66
2023/10/20 12:54:03;;;;;;;7.82;4.85;;;5.40;99.90;;;;;;5016003;28;20125;-65
2023/10/20 12:56:29;;;;;;;6.30;3.92;;;5.30;99.90;;;;;;5013045;28;20501;-66
2023/10/20 12:58:55;;;;;;;8.02;4.53;;;5.30;99.90;;;;;;5012190;28;20045;-63
2023/10/20 13:01:21;;;;;;;6.97;4.20;;;5.30;99.90;;;;;;5013794;28;20021;-66
2023/10/20 13:03:48;;;;;;;6.80;3.75;;;5.30;99.90;;;;;;5015295;28;20119;-66
2023/10/20 13:06:14;;;;;;;5.53;3.92;;;5.30;99.90;;;;;;5014410;28;20507;-65
2023/10/20 13:08:39;;;;;;;4.60;3.20;;;5.20;99.90;;;;;;5005835;28;20025;-66
2023/10/20 13:11:06;;;;;;;5.03;3.85;;;5.20;99.90;;;;;;5007743;28;20029;-65
2023/10/20 13:13:32;;;;;;;8.43;4.00;;;5.30;99.90;;;;;;5009511;28;20026;-65